sensor_id;sensor_type;location;lat;lon;timestamp;temperature;humidity
44723;DHT22;30451;48.638;10.624;2023-03-14T00:00:57;22.20;50.30
44723;DHT22;30451;48.638;10.624;2023-03-14T00:03:23;22.30;50.30
44723;DHT22;30451;48.638;10.624;2023-03-14T00:05:49;22.20;50.30
44723;DHT22;30451;48.638;10.624;2023-03-14T00:08:14;22.20;50.20
44723;DHT22;30451;48.638;10.624;2023-03-14T00:10:40;22.20;50.20
44723;DHT22;30451;48.638;10.624;2023-03-14T00:13:06;22.20;50.20
44723;DHT22;30451;48.638;10.624;2023-03-14T00:15:34;22.30;50.20
44723;DHT22;30451;48.638;10.624;2023-03-14T00:18:01;22.20;50.20
44723;DHT22;30451;48.638;10.624;2023-03-14T00:20:27;22.20;50.70
44723;DHT22;30451;48.638;10.624;2023-03-14T00:22:52;22.20;50.10
44723;DHT22;30451;48.638;10.624;2023-03-14T00:25:18;22.20;50.20
44723;DHT22;30451;48.638;10.624;2023-03-14T00:27:44;22.20;50.10
44723;DHT22;30451;48.638;10.624;2023-03-14T00:30:10;22.20;50.10
44723;DHT22;30451;48.638;10.624;2023-03-14T00:32:36;22.20;50.20
44723;DHT22;30451;48.638;10.624;2023-03-14T00:35:02;22.20;50.10
44723;DHT22;30451;48.638;10.624;2023-03-14T00:37:28;22.20;50.10
44723;DHT22;30451;48.638;10.624;2023-03-14T00:39:54;22.20;50.10
44723;DHT22;30451;48.638;10.624;2023-03-14T00:42:19;22.20;50.10
44723;DHT22;30451;48.638;10.624;2023-03-14T00:44:45;22.20;50.10
44723;DHT22;30451;48.638;10.624;2023-03-14T00:47:11;22.20;50.10
44723;DHT22;30451;48.638;10.624;2023-03-14T00:49:36;22.20;50.10
44723;DHT22;30451;48.638;10.624;2023-03-14T00:52:02;22.20;50.10
44723;DHT22;30451;48.638;10.624;2023-03-14T00:54:27;22.20;50.10
44723;DHT22;30451;48.638;10.624;2023-03-14T00:56:53;22.20;50.10
44723;DHT22;30451;48.638;10.624;2023-03-14T00:59:19;22.20;50.10
44723;DHT22;30451;48.638;10.624;2023-03-14T01:01:44;22.20;50.00
44723;DHT22;30451;48.638;10.624;2023-03-14T01:04:10;22.20;50.00
44723;DHT22;30451;48.638;10.624;2023-03-14T01:06:36;22.20;50.10
44723;DHT22;30451;48.638;10.624;2023-03-14T01:09:01;22.10;50.00
44723;DHT22;30451;48.638;10.624;2023-03-14T01:11:30;22.20;50.10
44723;DHT22;30451;48.638;10.624;2023-03-14T01:13:56;22.20;50.00
44723;DHT22;30451;48.638;10.624;2023-03-14T01:16:24;22.10;49.90
44723;DHT22;30451;48.638;10.624;2023-03-14T01:18:51;22.20;50.00
44723;DHT22;30451;48.638;10.624;2023-03-14T01:21:20;22.10;50.00
44723;DHT22;30451;48.638;10.624;2023-03-14T01:23:46;22.10;49.90
44723;DHT22;30451;48.638;10.624;2023-03-14T01:26:14;22.10;49.90
44723;DHT22;30451;48.638;10.624;2023-03-14T01:28:40;22.10;49.90
44723;DHT22;30451;48.638;10.624;2023-03-14T01:31:08;22.10;49.90
44723;DHT22;30451;48.638;10.624;2023-03-14T01:33:35;22.10;49.90
44723;DHT22;30451;48.638;10.624;2023-03-14T01:36:01;22.10;49.90
44723;DHT22;30451;48.638;10.624;2023-03-14T01:38:31;22.10;49.90
44723;DHT22;30451;48.638;10.624;2023-03-14T01:40:57;22.10;49.90
44723;DHT22;30451;48.638;10.624;2023-03-14T01:43:23;22.10;49.90
44723;DHT22;30451;48.638;10.624;2023-03-14T01:51:02;22.10;49.90
44723;DHT22;30451;48.638;10.624;2023-03-14T01:53:29;22.10;49.90
44723;DHT22;30451;48.638;10.624;2023-03-14T01:55:55;22.10;49.90
44723;DHT22;30451;48.638;10.624;2023-03-14T01:58:23;22.10;49.90
44723;DHT22;30451;48.638;10.624;2023-03-14T02:00:50;22.10;49.90
44723;DHT22;30451;48.638;10.624;2023-03-14T02:03:17;22.10;50.00
44723;DHT22;30451;48.638;10.624;2023-03-14T02:05:46;22.10;50.00
44723;DHT22;30451;48.638;10.624;2023-03-14T02:08:15;22.00;49.80
44723;DHT22;30451;48.638;10.624;2023-03-14T02:10:43;22.10;49.90
44723;DHT22;30451;48.638;10.624;2023-03-14T02:13:10;22.10;49.90
44723;DHT22;30451;48.638;10.624;2023-03-14T02:15:37;22.10;49.90
44723;DHT22;30451;48.638;10.624;2023-03-14T02:18:03;22.10;49.90
44723;DHT22;30451;48.638;10.624;2023-03-14T02:23:20;22.10;49.90
44723;DHT22;30451;48.638;10.624;2023-03-14T02:26:03;22.10;49.90
44723;DHT22;30451;48.638;10.624;2023-03-14T02:28:31;22.00;49.90
44723;DHT22;30451;48.638;10.624;2023-03-14T02:30:57;22.00;49.80
44723;DHT22;30451;48.638;10.624;2023-03-14T02:33:23;22.00;49.80
44723;DHT22;30451;48.638;10.624;2023-03-14T02:36:00;22.00;50.40
44723;DHT22;30451;48.638;10.624;2023-03-14T02:40:54;22.00;49.80
44723;DHT22;30451;48.638;10.624;2023-03-14T02:43:20;22.00;49.80
44723;DHT22;30451;48.638;10.624;2023-03-14T02:45:47;22.00;49.80
44723;DHT22;30451;48.638;10.624;2023-03-14T02:48:24;22.00;49.80
44723;DHT22;30451;48.638;10.624;2023-03-14T02:50:52;22.00;49.80
44723;DHT22;30451;48.638;10.624;2023-03-14T02:53:39;22.00;49.80
44723;DHT22;30451;48.638;10.624;2023-03-14T02:56:07;22.00;49.80
44723;DHT22;30451;48.638;10.624;2023-03-14T02:58:33;22.00;49.80
44723;DHT22;30451;48.638;10.624;2023-03-14T03:00:59;22.00;49.80
44723;DHT22;30451;48.638;10.624;2023-03-14T03:03:24;22.00;49.80
44723;DHT22;30451;48.638;10.624;2023-03-14T03:05:51;22.00;49.80
44723;DHT22;30451;48.638;10.624;2023-03-14T03:08:19;22.00;49.80
44723;DHT22;30451;48.638;10.624;2023-03-14T03:10:45;22.00;49.80
44723;DHT22;30451;48.638;10.624;2023-03-14T03:13:10;22.00;49.80
44723;DHT22;30451;48.638;10.624;2023-03-14T03:15:36;22.00;49.80
44723;DHT22;30451;48.638;10.624;2023-03-14T03:18:02;22.00;49.80
44723;DHT22;30451;48.638;10.624;2023-03-14T03:20:27;22.00;49.80
44723;DHT22;30451;48.638;10.624;2023-03-14T03:22:53;22.00;49.80
44723;DHT22;30451;48.638;10.624;2023-03-14T03:25:18;22.00;49.80
44723;DHT22;30451;48.638;10.624;2023-03-14T03:27:44;22.00;49.80
44723;DHT22;30451;48.638;10.624;2023-03-14T03:30:10;21.90;49.70
44723;DHT22;30451;48.638;10.624;2023-03-14T03:32:36;21.90;49.70
44723;DHT22;30451;48.638;10.624;2023-03-14T03:35:05;21.90;49.70
44723;DHT22;30451;48.638;10.624;2023-03-14T03:37:32;21.90;49.70
44723;DHT22;30451;48.638;10.624;2023-03-14T03:39:57;21.90;49.70
44723;DHT22;30451;48.638;10.624;2023-03-14T03:42:23;21.90;50.20
44723;DHT22;30451;48.638;10.624;2023-03-14T03:44:48;21.90;49.60
44723;DHT22;30451;48.638;10.624;2023-03-14T03:47:15;21.90;49.60
44723;DHT22;30451;48.638;10.624;2023-03-14T03:49:41;21.90;49.60
44723;DHT22;30451;48.638;10.624;2023-03-14T03:52:06;21.90;49.60
44723;DHT22;30451;48.638;10.624;2023-03-14T03:54:32;21.90;49.60
44723;DHT22;30451;48.638;10.624;2023-03-14T03:56:57;21.90;50.10
44723;DHT22;30451;48.638;10.624;2023-03-14T03:59:23;21.90;49.70
44723;DHT22;30451;48.638;10.624;2023-03-14T04:01:49;21.80;49.60
44723;DHT22;30451;48.638;10.624;2023-03-14T04:04:14;21.80;49.50
44723;DHT22;30451;48.638;10.624;2023-03-14T04:06:40;21.90;49.60
44723;DHT22;30451;48.638;10.624;2023-03-14T04:09:07;21.90;50.10
44723;DHT22;30451;48.638;10.624;2023-03-14T04:11:33;21.90;49.60
44723;DHT22;30451;48.638;10.624;2023-03-14T04:13:59;21.80;49.50
44723;DHT22;30451;48.638;10.624;2023-03-14T04:16:25;21.80;49.50
44723;DHT22;30451;48.638;10.624;2023-03-14T04:18:51;21.80;49.50
44723;DHT22;30451;48.638;10.624;2023-03-14T04:21:17;21.80;49.50
44723;DHT22;30451;48.638;10.624;2023-03-14T04:23:42;21.80;50.10
44723;DHT22;30451;48.638;10.624;2023-03-14T04:26:08;21.80;49.50
44723;DHT22;30451;48.638;10.624;2023-03-14T04:28:33;21.80;49.50
44723;DHT22;30451;48.638;10.624;2023-03-14T04:31:14;21.80;49.50
44723;DHT22;30451;48.638;10.624;2023-03-14T04:33:40;21.80;49.50
44723;DHT22;30451;48.638;10.624;2023-03-14T04:36:06;21.80;49.50
44723;DHT22;30451;48.638;10.624;2023-03-14T04:38:33;21.80;49.50
44723;DHT22;30451;48.638;10.624;2023-03-14T04:40:58;21.80;49.50
44723;DHT22;30451;48.638;10.624;2023-03-14T04:43:24;21.80;49.50
44723;DHT22;30451;48.638;10.624;2023-03-14T04:45:54;21.80;49.50
44723;DHT22;30451;48.638;10.624;2023-03-14T04:48:20;21.80;49.50
44723;DHT22;30451;48.638;10.624;2023-03-14T04:50:49;21.80;49.40
44723;DHT22;30451;48.638;10.624;2023-03-14T04:53:15;21.80;49.50
44723;DHT22;30451;48.638;10.624;2023-03-14T04:55:41;21.70;49.40
44723;DHT22;30451;48.638;10.624;2023-03-14T04:58:07;21.80;49.40
44723;DHT22;30451;48.638;10.624;2023-03-14T05:00:32;21.70;49.30
44723;DHT22;30451;48.638;10.624;2023-03-14T05:02:58;21.70;49.30
44723;DHT22;30451;48.638;10.624;2023-03-14T05:05:24;21.70;49.40
44723;DHT22;30451;48.638;10.624;2023-03-14T05:07:50;21.70;49.40
44723;DHT22;30451;48.638;10.624;2023-03-14T05:10:16;21.70;49.30
44723;DHT22;30451;48.638;10.624;2023-03-14T05:12:41;21.70;49.30
44723;DHT22;30451;48.638;10.624;2023-03-14T05:15:08;21.70;49.30
44723;DHT22;30451;48.638;10.624;2023-03-14T05:17:34;21.70;49.30
44723;DHT22;30451;48.638;10.624;2023-03-14T05:19:59;21.70;49.80
44723;DHT22;30451;48.638;10.624;2023-03-14T05:22:25;21.70;49.20
44723;DHT22;30451;48.638;10.624;2023-03-14T05:24:51;21.70;49.30
44723;DHT22;30451;48.638;10.624;2023-03-14T05:27:17;21.70;49.20
44723;DHT22;30451;48.638;10.624;2023-03-14T05:29:42;21.70;49.20
44723;DHT22;30451;48.638;10.624;2023-03-14T05:32:08;21.70;49.30
44723;DHT22;30451;48.638;10.624;2023-03-14T05:34:34;21.70;49.20
44723;DHT22;30451;48.638;10.624;2023-03-14T05:36:59;21.70;49.20
44723;DHT22;30451;48.638;10.624;2023-03-14T05:39:25;21.70;49.20
44723;DHT22;30451;48.638;10.624;2023-03-14T05:41:50;21.70;49.20
44723;DHT22;30451;48.638;10.624;2023-03-14T05:44:16;21.70;49.20
44723;DHT22;30451;48.638;10.624;2023-03-14T05:46:42;21.70;49.70
44723;DHT22;30451;48.638;10.624;2023-03-14T05:49:08;21.60;49.20
44723;DHT22;30451;48.638;10.624;2023-03-14T05:51:33;21.60;49.20
44723;DHT22;30451;48.638;10.624;2023-03-14T05:53:59;21.60;49.10
44723;DHT22;30451;48.638;10.624;2023-03-14T05:56:24;21.60;49.20
44723;DHT22;30451;48.638;10.624;2023-03-14T05:58:50;21.60;49.70
44723;DHT22;30451;48.638;10.624;2023-03-14T06:01:16;21.60;49.10
44723;DHT22;30451;48.638;10.624;2023-03-14T06:03:41;21.60;49.20
44723;DHT22;30451;48.638;10.624;2023-03-14T06:06:07;21.60;49.20
44723;DHT22;30451;48.638;10.624;2023-03-14T06:08:32;21.60;49.20
44723;DHT22;30451;48.638;10.624;2023-03-14T06:10:59;21.60;49.20
44723;DHT22;30451;48.638;10.624;2023-03-14T06:13:27;21.60;49.30
44723;DHT22;30451;48.638;10.624;2023-03-14T06:15:53;21.60;49.80
44723;DHT22;30451;48.638;10.624;2023-03-14T06:18:18;21.60;49.40
44723;DHT22;30451;48.638;10.624;2023-03-14T06:20:44;21.60;49.50
44723;DHT22;30451;48.638;10.624;2023-03-14T06:23:10;21.60;50.30
44723;DHT22;30451;48.638;10.624;2023-03-14T06:25:36;21.70;50.80
44723;DHT22;30451;48.638;10.624;2023-03-14T06:28:01;21.90;50.70
44723;DHT22;30451;48.638;10.624;2023-03-14T06:30:27;22.00;50.60
44723;DHT22;30451;48.638;10.624;2023-03-14T06:32:53;22.00;50.20
44723;DHT22;30451;48.638;10.624;2023-03-14T06:35:21;22.00;50.10
44723;DHT22;30451;48.638;10.624;2023-03-14T06:37:46;22.00;50.00
44723;DHT22;30451;48.638;10.624;2023-03-14T06:40:12;22.00;49.90
44723;DHT22;30451;48.638;10.624;2023-03-14T06:42:42;22.00;49.80
44723;DHT22;30451;48.638;10.624;2023-03-14T06:45:09;22.00;49.70
44723;DHT22;30451;48.638;10.624;2023-03-14T06:47:34;22.00;49.70
44723;DHT22;30451;48.638;10.624;2023-03-14T06:50:00;22.00;49.60
44723;DHT22;30451;48.638;10.624;2023-03-14T06:52:26;22.10;49.70
44723;DHT22;30451;48.638;10.624;2023-03-14T06:54:51;22.10;49.60
44723;DHT22;30451;48.638;10.624;2023-03-14T06:57:17;22.10;49.60
44723;DHT22;30451;48.638;10.624;2023-03-14T06:59:42;22.10;49.60
44723;DHT22;30451;48.638;10.624;2023-03-14T07:02:11;22.20;49.60
44723;DHT22;30451;48.638;10.624;2023-03-14T07:04:37;22.20;50.00
44723;DHT22;30451;48.638;10.624;2023-03-14T07:07:03;22.20;49.40
44723;DHT22;30451;48.638;10.624;2023-03-14T07:09:28;22.20;49.40
44723;DHT22;30451;48.638;10.624;2023-03-14T07:11:54;22.30;49.30
44723;DHT22;30451;48.638;10.624;2023-03-14T07:14:19;22.30;49.30
44723;DHT22;30451;48.638;10.624;2023-03-14T07:16:45;22.30;49.20
44723;DHT22;30451;48.638;10.624;2023-03-14T07:19:11;22.30;49.10
44723;DHT22;30451;48.638;10.624;2023-03-14T07:21:36;22.40;49.10
44723;DHT22;30451;48.638;10.624;2023-03-14T07:24:02;22.40;49.20
44723;DHT22;30451;48.638;10.624;2023-03-14T07:26:28;22.40;49.10
44723;DHT22;30451;48.638;10.624;2023-03-14T07:28:53;22.50;49.10
44723;DHT22;30451;48.638;10.624;2023-03-14T07:31:19;22.50;49.10
44723;DHT22;30451;48.638;10.624;2023-03-14T07:33:45;22.50;49.50
44723;DHT22;30451;48.638;10.624;2023-03-14T07:36:11;22.50;49.00
44723;DHT22;30451;48.638;10.624;2023-03-14T07:38:37;22.50;48.90
44723;DHT22;30451;48.638;10.624;2023-03-14T07:41:05;22.50;48.90
44723;DHT22;30451;48.638;10.624;2023-03-14T07:43:31;22.60;48.90
44723;DHT22;30451;48.638;10.624;2023-03-14T07:45:57;22.60;49.60
44723;DHT22;30451;48.638;10.624;2023-03-14T07:48:23;22.60;50.20
44723;DHT22;30451;48.638;10.624;2023-03-14T07:50:51;22.60;49.30
44723;DHT22;30451;48.638;10.624;2023-03-14T07:53:17;22.70;49.10
44723;DHT22;30451;48.638;10.624;2023-03-14T07:55:43;22.70;49.60
44723;DHT22;30451;48.638;10.624;2023-03-14T07:58:08;22.70;50.10
44723;DHT22;30451;48.638;10.624;2023-03-14T08:00:34;22.80;50.50
44723;DHT22;30451;48.638;10.624;2023-03-14T08:02:59;22.80;50.60
44723;DHT22;30451;48.638;10.624;2023-03-14T08:05:25;22.90;49.90
44723;DHT22;30451;48.638;10.624;2023-03-14T08:07:51;22.90;49.40
44723;DHT22;30451;48.638;10.624;2023-03-14T08:10:16;22.90;49.60
44723;DHT22;30451;48.638;10.624;2023-03-14T08:12:52;22.90;48.80
44723;DHT22;30451;48.638;10.624;2023-03-14T08:15:19;22.90;48.70
44723;DHT22;30451;48.638;10.624;2023-03-14T08:17:44;22.90;49.10
44723;DHT22;30451;48.638;10.624;2023-03-14T08:20:11;22.90;48.50
44723;DHT22;30451;48.638;10.624;2023-03-14T08:22:38;22.90;48.90
44723;DHT22;30451;48.638;10.624;2023-03-14T08:25:04;22.90;48.40
44723;DHT22;30451;48.638;10.624;2023-03-14T08:27:30;22.90;48.30
44723;DHT22;30451;48.638;10.624;2023-03-14T08:29:55;22.90;48.10
44723;DHT22;30451;48.638;10.624;2023-03-14T08:32:21;23.00;48.10
44723;DHT22;30451;48.638;10.624;2023-03-14T08:34:49;22.90;48.10
44723;DHT22;30451;48.638;10.624;2023-03-14T08:37:14;22.90;48.30
44723;DHT22;30451;48.638;10.624;2023-03-14T08:39:40;23.00;48.50
44723;DHT22;30451;48.638;10.624;2023-03-14T08:42:05;23.00;48.20
44723;DHT22;30451;48.638;10.624;2023-03-14T08:44:31;23.00;47.90
44723;DHT22;30451;48.638;10.624;2023-03-14T08:46:57;23.00;47.60
44723;DHT22;30451;48.638;10.624;2023-03-14T08:49:22;23.00;47.50
44723;DHT22;30451;48.638;10.624;2023-03-14T08:51:48;23.00;47.30
44723;DHT22;30451;48.638;10.624;2023-03-14T08:54:14;23.00;47.50
44723;DHT22;30451;48.638;10.624;2023-03-14T08:56:39;23.10;47.30
44723;DHT22;30451;48.638;10.624;2023-03-14T08:59:05;23.10;47.30
44723;DHT22;30451;48.638;10.624;2023-03-14T09:01:31;23.10;47.20
44723;DHT22;30451;48.638;10.624;2023-03-14T09:03:56;23.10;47.10
44723;DHT22;30451;48.638;10.624;2023-03-14T09:06:22;23.20;47.80
44723;DHT22;30451;48.638;10.624;2023-03-14T09:08:48;23.20;47.10
44723;DHT22;30451;48.638;10.624;2023-03-14T09:11:14;23.20;47.10
44723;DHT22;30451;48.638;10.624;2023-03-14T09:13:40;23.20;47.00
44723;DHT22;30451;48.638;10.624;2023-03-14T09:16:07;23.20;47.10
44723;DHT22;30451;48.638;10.624;2023-03-14T09:18:32;23.20;47.00
44723;DHT22;30451;48.638;10.624;2023-03-14T09:20:58;23.20;47.00
44723;DHT22;30451;48.638;10.624;2023-03-14T09:23:24;23.20;46.90
44723;DHT22;30451;48.638;10.624;2023-03-14T09:25:53;23.20;47.10
44723;DHT22;30451;48.638;10.624;2023-03-14T09:28:19;23.20;47.10
44723;DHT22;30451;48.638;10.624;2023-03-14T09:30:44;23.20;47.10
44723;DHT22;30451;48.638;10.624;2023-03-14T09:33:10;23.20;47.10
44723;DHT22;30451;48.638;10.624;2023-03-14T09:35:36;23.20;47.00
44723;DHT22;30451;48.638;10.624;2023-03-14T09:38:01;23.20;47.00
44723;DHT22;30451;48.638;10.624;2023-03-14T09:40:32;23.30;47.00
44723;DHT22;30451;48.638;10.624;2023-03-14T09:42:59;23.20;47.00
44723;DHT22;30451;48.638;10.624;2023-03-14T09:45:33;23.30;47.20
44723;DHT22;30451;48.638;10.624;2023-03-14T09:47:59;23.30;47.30
44723;DHT22;30451;48.638;10.624;2023-03-14T09:50:36;23.30;47.30
44723;DHT22;30451;48.638;10.624;2023-03-14T09:53:07;23.30;47.30
44723;DHT22;30451;48.638;10.624;2023-03-14T09:55:35;23.30;47.40
44723;DHT22;30451;48.638;10.624;2023-03-14T09:58:04;23.30;47.30
44723;DHT22;30451;48.638;10.624;2023-03-14T10:00:34;23.30;47.20
44723;DHT22;30451;48.638;10.624;2023-03-14T10:03:31;23.30;47.10
44723;DHT22;30451;48.638;10.624;2023-03-14T10:05:58;23.30;47.20
44723;DHT22;30451;48.638;10.624;2023-03-14T10:08:24;23.30;47.20
44723;DHT22;30451;48.638;10.624;2023-03-14T10:10:50;23.30;47.10
44723;DHT22;30451;48.638;10.624;2023-03-14T10:13:26;23.30;47.00
44723;DHT22;30451;48.638;10.624;2023-03-14T10:16:01;23.30;47.00
44723;DHT22;30451;48.638;10.624;2023-03-14T10:18:29;23.40;47.00
44723;DHT22;30451;48.638;10.624;2023-03-14T10:21:04;23.40;47.10
44723;DHT22;30451;48.638;10.624;2023-03-14T10:23:32;23.40;47.60
44723;DHT22;30451;48.638;10.624;2023-03-14T10:26:33;23.40;47.10
44723;DHT22;30451;48.638;10.624;2023-03-14T10:28:54;23.40;47.30
44723;DHT22;30451;48.638;10.624;2023-03-14T10:31:26;23.40;47.30
44723;DHT22;30451;48.638;10.624;2023-03-14T10:34:03;23.40;47.30
44723;DHT22;30451;48.638;10.624;2023-03-14T10:36:30;23.40;47.20
44723;DHT22;30451;48.638;10.624;2023-03-14T10:41:51;23.40;47.10
44723;DHT22;30451;48.638;10.624;2023-03-14T10:44:21;23.40;47.10
44723;DHT22;30451;48.638;10.624;2023-03-14T10:46:56;23.40;47.10
44723;DHT22;30451;48.638;10.624;2023-03-14T10:49:35;23.50;47.10
44723;DHT22;30451;48.638;10.624;2023-03-14T10:52:24;23.50;47.10
44723;DHT22;30451;48.638;10.624;2023-03-14T10:55:10;23.50;47.00
44723;DHT22;30451;48.638;10.624;2023-03-14T10:57:40;23.50;46.70
44723;DHT22;30451;48.638;10.624;2023-03-14T11:05:25;23.50;46.80
44723;DHT22;30451;48.638;10.624;2023-03-14T11:08:07;23.50;46.60
44723;DHT22;30451;48.638;10.624;2023-03-14T11:10:36;23.50;47.40
44723;DHT22;30451;48.638;10.624;2023-03-14T11:13:28;23.50;47.30
44723;DHT22;30451;48.638;10.624;2023-03-14T11:27:36;23.60;46.50
44723;DHT22;30451;48.638;10.624;2023-03-14T11:30:13;23.60;46.60
44723;DHT22;30451;48.638;10.624;2023-03-14T11:32:53;23.60;46.80
44723;DHT22;30451;48.638;10.624;2023-03-14T11:35:30;23.60;46.60
44723;DHT22;30451;48.638;10.624;2023-03-14T11:38:15;23.60;46.60
44723;DHT22;30451;48.638;10.624;2023-03-14T11:40:41;23.60;46.50
44723;DHT22;30451;48.638;10.624;2023-03-14T11:45:41;23.60;46.50
44723;DHT22;30451;48.638;10.624;2023-03-14T11:48:20;23.60;46.60
44723;DHT22;30451;48.638;10.624;2023-03-14T11:50:50;23.60;46.50
44723;DHT22;30451;48.638;10.624;2023-03-14T11:56:37;23.70;46.50
44723;DHT22;30451;48.638;10.624;2023-03-14T11:59:16;23.70;46.60
44723;DHT22;30451;48.638;10.624;2023-03-14T12:02:11;23.70;46.70
44723;DHT22;30451;48.638;10.624;2023-03-14T12:10:10;23.70;46.60
44723;DHT22;30451;48.638;10.624;2023-03-14T12:12:36;23.70;46.80
44723;DHT22;30451;48.638;10.624;2023-03-14T12:15:03;23.70;46.80
44723;DHT22;30451;48.638;10.624;2023-03-14T12:17:38;23.70;46.90
44723;DHT22;30451;48.638;10.624;2023-03-14T12:20:16;23.70;46.80
44723;DHT22;30451;48.638;10.624;2023-03-14T12:22:56;23.70;46.90
44723;DHT22;30451;48.638;10.624;2023-03-14T12:25:28;23.70;46.90
44723;DHT22;30451;48.638;10.624;2023-03-14T12:30:38;23.70;47.00
44723;DHT22;30451;48.638;10.624;2023-03-14T12:35:58;23.70;47.10
44723;DHT22;30451;48.638;10.624;2023-03-14T12:43:47;23.70;46.90
44723;DHT22;30451;48.638;10.624;2023-03-14T12:46:21;23.70;46.80
44723;DHT22;30451;48.638;10.624;2023-03-14T12:51:28;23.70;46.70
44723;DHT22;30451;48.638;10.624;2023-03-14T13:01:53;23.70;46.50
44723;DHT22;30451;48.638;10.624;2023-03-14T13:06:59;23.70;46.80
44723;DHT22;30451;48.638;10.624;2023-03-14T13:12:14;23.70;46.80
44723;DHT22;30451;48.638;10.624;2023-03-14T13:14:49;23.70;46.80
44723;DHT22;30451;48.638;10.624;2023-03-14T13:17:32;23.70;46.70
44723;DHT22;30451;48.638;10.624;2023-03-14T13:20:02;23.70;46.90
44723;DHT22;30451;48.638;10.624;2023-03-14T13:22:32;23.70;46.80
44723;DHT22;30451;48.638;10.624;2023-03-14T13:25:09;23.70;46.80
44723;DHT22;30451;48.638;10.624;2023-03-14T13:27:35;23.70;46.80
44723;DHT22;30451;48.638;10.624;2023-03-14T13:30:25;23.60;46.80
44723;DHT22;30451;48.638;10.624;2023-03-14T13:32:53;23.60;46.80
44723;DHT22;30451;48.638;10.624;2023-03-14T13:35:27;23.60;46.80
44723;DHT22;30451;48.638;10.624;2023-03-14T13:38:00;23.60;46.80
44723;DHT22;30451;48.638;10.624;2023-03-14T13:40:35;23.60;46.80
44723;DHT22;30451;48.638;10.624;2023-03-14T13:43:23;23.60;46.90
44723;DHT22;30451;48.638;10.624;2023-03-14T13:45:55;23.50;46.90
44723;DHT22;30451;48.638;10.624;2023-03-14T13:48:22;23.50;46.90
44723;DHT22;30451;48.638;10.624;2023-03-14T13:50:56;23.50;46.90
44723;DHT22;30451;48.638;10.624;2023-03-14T13:53:24;23.50;46.90
44723;DHT22;30451;48.638;10.624;2023-03-14T13:55:51;23.50;46.80
44723;DHT22;30451;48.638;10.624;2023-03-14T13:58:26;23.50;46.90
44723;DHT22;30451;48.638;10.624;2023-03-14T14:01:42;23.40;46.90
44723;DHT22;30451;48.638;10.624;2023-03-14T14:03:45;23.40;46.90
44723;DHT22;30451;48.638;10.624;2023-03-14T14:06:33;23.40;46.90
44723;DHT22;30451;48.638;10.624;2023-03-14T14:09:04;23.40;47.00
44723;DHT22;30451;48.638;10.624;2023-03-14T14:14:12;23.40;47.10
44723;DHT22;30451;48.638;10.624;2023-03-14T14:16:39;23.30;47.00
44723;DHT22;30451;48.638;10.624;2023-03-14T14:19:05;23.30;47.10
44723;DHT22;30451;48.638;10.624;2023-03-14T14:21:30;23.30;47.10
44723;DHT22;30451;48.638;10.624;2023-03-14T14:23:57;23.30;47.10
44723;DHT22;30451;48.638;10.624;2023-03-14T14:26:23;23.30;47.10
44723;DHT22;30451;48.638;10.624;2023-03-14T14:28:59;23.30;47.10
44723;DHT22;30451;48.638;10.624;2023-03-14T14:31:25;23.30;47.10
44723;DHT22;30451;48.638;10.624;2023-03-14T14:36:24;23.20;47.20
44723;DHT22;30451;48.638;10.624;2023-03-14T14:39:04;23.20;47.10
44723;DHT22;30451;48.638;10.624;2023-03-14T14:41:33;23.20;47.10
44723;DHT22;30451;48.638;10.624;2023-03-14T14:44:00;23.20;47.20
44723;DHT22;30451;48.638;10.624;2023-03-14T14:46:28;23.20;47.20
44723;DHT22;30451;48.638;10.624;2023-03-14T14:48:57;23.20;47.20
44723;DHT22;30451;48.638;10.624;2023-03-14T14:51:32;23.20;47.20
44723;DHT22;30451;48.638;10.624;2023-03-14T14:54:14;23.10;47.20
44723;DHT22;30451;48.638;10.624;2023-03-14T14:56:40;23.20;47.30
44723;DHT22;30451;48.638;10.624;2023-03-14T14:59:21;23.10;47.20
44723;DHT22;30451;48.638;10.624;2023-03-14T15:01:47;23.10;47.20
44723;DHT22;30451;48.638;10.624;2023-03-14T15:04:14;23.10;47.30
44723;DHT22;30451;48.638;10.624;2023-03-14T15:06:44;23.10;47.30
44723;DHT22;30451;48.638;10.624;2023-03-14T15:09:11;23.10;47.30
44723;DHT22;30451;48.638;10.624;2023-03-14T15:11:37;23.10;47.80
44723;DHT22;30451;48.638;10.624;2023-03-14T15:14:03;23.00;47.20
44723;DHT22;30451;48.638;10.624;2023-03-14T15:16:30;23.10;47.30
44723;DHT22;30451;48.638;10.624;2023-03-14T15:18:58;23.00;47.30
44723;DHT22;30451;48.638;10.624;2023-03-14T15:21:25;23.00;47.30
44723;DHT22;30451;48.638;10.624;2023-03-14T15:23:52;23.00;47.30
44723;DHT22;30451;48.638;10.624;2023-03-14T15:26:20;23.00;47.30
44723;DHT22;30451;48.638;10.624;2023-03-14T15:28:47;23.00;47.30
44723;DHT22;30451;48.638;10.624;2023-03-14T15:31:13;23.00;47.30
44723;DHT22;30451;48.638;10.624;2023-03-14T15:33:40;23.00;47.30
44723;DHT22;30451;48.638;10.624;2023-03-14T15:36:26;23.00;47.30
44723;DHT22;30451;48.638;10.624;2023-03-14T15:38:53;23.00;47.30
44723;DHT22;30451;48.638;10.624;2023-03-14T15:41:19;22.90;47.20
44723;DHT22;30451;48.638;10.624;2023-03-14T15:43:46;22.90;47.80
44723;DHT22;30451;48.638;10.624;2023-03-14T15:46:12;22.90;47.30
44723;DHT22;30451;48.638;10.624;2023-03-14T15:48:38;22.90;47.20
44723;DHT22;30451;48.638;10.624;2023-03-14T15:51:04;22.90;47.20
44723;DHT22;30451;48.638;10.624;2023-03-14T15:53:30;22.90;47.20
44723;DHT22;30451;48.638;10.624;2023-03-14T15:55:55;22.90;47.30
44723;DHT22;30451;48.638;10.624;2023-03-14T15:58:21;22.90;47.20
44723;DHT22;30451;48.638;10.624;2023-03-14T16:00:47;22.90;47.30
44723;DHT22;30451;48.638;10.624;2023-03-14T16:03:13;22.80;47.20
44723;DHT22;30451;48.638;10.624;2023-03-14T16:05:41;22.80;47.20
44723;DHT22;30451;48.638;10.624;2023-03-14T16:08:07;22.80;47.20
44723;DHT22;30451;48.638;10.624;2023-03-14T16:10:33;22.80;47.20
44723;DHT22;30451;48.638;10.624;2023-03-14T16:12:59;22.80;47.20
44723;DHT22;30451;48.638;10.624;2023-03-14T16:15:24;22.80;47.20
44723;DHT22;30451;48.638;10.624;2023-03-14T16:17:54;22.80;47.20
44723;DHT22;30451;48.638;10.624;2023-03-14T16:20:20;22.80;47.20
44723;DHT22;30451;48.638;10.624;2023-03-14T16:22:46;22.70;47.20
44723;DHT22;30451;48.638;10.624;2023-03-14T16:25:13;22.70;47.20
44723;DHT22;30451;48.638;10.624;2023-03-14T16:27:39;22.70;47.20
44723;DHT22;30451;48.638;10.624;2023-03-14T16:30:05;22.70;47.20
44723;DHT22;30451;48.638;10.624;2023-03-14T16:32:31;22.70;47.20
44723;DHT22;30451;48.638;10.624;2023-03-14T16:34:57;22.70;47.70